sensor_id;sensor_type;location;lat;lon;timestamp;temperature;humidity
69335;SHT31;56477;52.742;15.242;2022-08-06T00:01:50;16.44;87.04
69335;SHT31;56477;52.742;15.242;2022-08-06T00:04:17;16.42;87.18
69335;SHT31;56477;52.742;15.242;2022-08-06T00:06:43;16.40;87.19
69335;SHT31;56477;52.742;15.242;2022-08-06T00:09:09;16.31;87.40
69335;SHT31;56477;52.742;15.242;2022-08-06T00:11:39;16.34;87.71
69335;SHT31;56477;52.742;15.242;2022-08-06T00:14:06;16.38;87.03
69335;SHT31;56477;52.742;15.242;2022-08-06T00:16:31;16.38;87.02
69335;SHT31;56477;52.742;15.242;2022-08-06T00:18:57;16.31;87.31
69335;SHT31;56477;52.742;15.242;2022-08-06T00:21:23;16.18;87.43
69335;SHT31;56477;52.742;15.242;2022-08-06T00:23:49;16.20;87.49
69335;SHT31;56477;52.742;15.242;2022-08-06T00:26:15;16.21;87.35
69335;SHT31;56477;52.742;15.242;2022-08-06T00:28:41;16.12;87.68
69335;SHT31;56477;52.742;15.242;2022-08-06T00:31:07;16.12;87.82
69335;SHT31;56477;52.742;15.242;2022-08-06T00:33:35;16.10;87.87
69335;SHT31;56477;52.742;15.242;2022-08-06T00:36:01;16.09;87.68
69335;SHT31;56477;52.742;15.242;2022-08-06T00:38:28;16.09;87.79
69335;SHT31;56477;52.742;15.242;2022-08-06T00:40:54;16.07;87.91
69335;SHT31;56477;52.742;15.242;2022-08-06T00:43:20;16.03;88.00
69335;SHT31;56477;52.742;15.242;2022-08-06T00:45:46;16.00;88.45
69335;SHT31;56477;52.742;15.242;2022-08-06T00:48:13;15.97;88.58
69335;SHT31;56477;52.742;15.242;2022-08-06T00:50:39;16.04;88.64
69335;SHT31;56477;52.742;15.242;2022-08-06T00:53:05;16.07;88.36
69335;SHT31;56477;52.742;15.242;2022-08-06T00:55:32;16.04;88.43
69335;SHT31;56477;52.742;15.242;2022-08-06T00:57:58;15.93;89.04
69335;SHT31;56477;52.742;15.242;2022-08-06T01:00:24;15.94;88.80
69335;SHT31;56477;52.742;15.242;2022-08-06T01:02:50;15.97;88.96
69335;SHT31;56477;52.742;15.242;2022-08-06T01:05:16;15.92;89.09
69335;SHT31;56477;52.742;15.242;2022-08-06T01:07:42;15.93;89.03
69335;SHT31;56477;52.742;15.242;2022-08-06T01:10:09;15.82;89.56
69335;SHT31;56477;52.742;15.242;2022-08-06T01:12:35;15.78;89.70
69335;SHT31;56477;52.742;15.242;2022-08-06T01:15:02;15.81;89.70
69335;SHT31;56477;52.742;15.242;2022-08-06T01:17:37;15.76;89.95
69335;SHT31;56477;52.742;15.242;2022-08-06T01:20:17;15.72;89.92
69335;SHT31;56477;52.742;15.242;2022-08-06T01:23:02;15.73;89.90
69335;SHT31;56477;52.742;15.242;2022-08-06T01:25:59;15.69;89.78
69335;SHT31;56477;52.742;15.242;2022-08-06T01:28:34;15.66;89.88
69335;SHT31;56477;52.742;15.242;2022-08-06T01:31:10;15.59;90.05
69335;SHT31;56477;52.742;15.242;2022-08-06T01:33:43;15.61;90.08
69335;SHT31;56477;52.742;15.242;2022-08-06T01:36:16;15.56;90.24
69335;SHT31;56477;52.742;15.242;2022-08-06T01:38:46;15.65;90.22
69335;SHT31;56477;52.742;15.242;2022-08-06T01:41:17;15.75;89.97
69335;SHT31;56477;52.742;15.242;2022-08-06T01:44:08;15.70;89.70
69335;SHT31;56477;52.742;15.242;2022-08-06T01:46:36;15.69;89.57
69335;SHT31;56477;52.742;15.242;2022-08-06T01:49:07;15.66;89.59
69335;SHT31;56477;52.742;15.242;2022-08-06T01:51:35;15.66;89.45
69335;SHT31;56477;52.742;15.242;2022-08-06T01:54:05;15.67;89.43
69335;SHT31;56477;52.742;15.242;2022-08-06T01:56:36;15.73;88.93
69335;SHT31;56477;52.742;15.242;2022-08-06T01:59:04;15.59;89.20
69335;SHT31;56477;52.742;15.242;2022-08-06T02:01:32;15.63;89.45
69335;SHT31;56477;52.742;15.242;2022-08-06T02:04:00;15.66;89.21
69335;SHT31;56477;52.742;15.242;2022-08-06T02:06:33;15.65;89.35
69335;SHT31;56477;52.742;15.242;2022-08-06T02:09:11;15.61;89.36
69335;SHT31;56477;52.742;15.242;2022-08-06T02:11:39;15.56;89.66
69335;SHT31;56477;52.742;15.242;2022-08-06T02:14:07;15.52;89.80
69335;SHT31;56477;52.742;15.242;2022-08-06T02:16:35;15.45;90.10
69335;SHT31;56477;52.742;15.242;2022-08-06T02:19:04;15.46;89.99
69335;SHT31;56477;52.742;15.242;2022-08-06T02:21:33;15.41;90.01
69335;SHT31;56477;52.742;15.242;2022-08-06T02:24:02;15.42;90.01
69335;SHT31;56477;52.742;15.242;2022-08-06T02:26:30;15.44;90.01
69335;SHT31;56477;52.742;15.242;2022-08-06T02:28:58;15.41;90.06
69335;SHT31;56477;52.742;15.242;2022-08-06T02:31:25;15.45;89.76
69335;SHT31;56477;52.742;15.242;2022-08-06T02:33:51;15.44;89.63
69335;SHT31;56477;52.742;15.242;2022-08-06T02:36:27;15.48;89.27
69335;SHT31;56477;52.742;15.242;2022-08-06T02:39:08;15.54;89.21
69335;SHT31;56477;52.742;15.242;2022-08-06T02:41:51;15.52;88.74
69335;SHT31;56477;52.742;15.242;2022-08-06T02:50:08;15.42;88.80
69335;SHT31;56477;52.742;15.242;2022-08-06T02:52:43;15.42;88.70
69335;SHT31;56477;52.742;15.242;2022-08-06T02:55:14;15.42;88.62
69335;SHT31;56477;52.742;15.242;2022-08-06T02:57:50;15.41;88.44
69335;SHT31;56477;52.742;15.242;2022-08-06T03:00:17;15.46;88.31
69335;SHT31;56477;52.742;15.242;2022-08-06T03:02:44;15.48;88.50
69335;SHT31;56477;52.742;15.242;2022-08-06T03:05:14;15.56;87.82
69335;SHT31;56477;52.742;15.242;2022-08-06T03:07:41;15.58;87.90
69335;SHT31;56477;52.742;15.242;2022-08-06T03:10:08;15.59;87.69
69335;SHT31;56477;52.742;15.242;2022-08-06T03:12:35;15.63;87.36
69335;SHT31;56477;52.742;15.242;2022-08-06T03:15:03;15.62;87.09
69335;SHT31;56477;52.742;15.242;2022-08-06T03:17:31;15.58;87.43
69335;SHT31;56477;52.742;15.242;2022-08-06T03:20:00;15.66;86.68
69335;SHT31;56477;52.742;15.242;2022-08-06T03:22:28;15.63;86.50
69335;SHT31;56477;52.742;15.242;2022-08-06T03:24:57;15.66;85.59
69335;SHT31;56477;52.742;15.242;2022-08-06T03:27:24;15.63;85.32
69335;SHT31;56477;52.742;15.242;2022-08-06T03:29:52;15.63;85.20
69335;SHT31;56477;52.742;15.242;2022-08-06T03:32:19;15.66;85.32
69335;SHT31;56477;52.742;15.242;2022-08-06T03:34:46;15.66;84.96
69335;SHT31;56477;52.742;15.242;2022-08-06T03:37:13;15.69;85.14
69335;SHT31;56477;52.742;15.242;2022-08-06T03:39:43;15.67;85.44
69335;SHT31;56477;52.742;15.242;2022-08-06T03:42:10;15.69;85.63
69335;SHT31;56477;52.742;15.242;2022-08-06T03:44:36;15.67;85.36
69335;SHT31;56477;52.742;15.242;2022-08-06T03:47:26;15.65;85.25
69335;SHT31;56477;52.742;15.242;2022-08-06T03:53:10;15.70;84.26
69335;SHT31;56477;52.742;15.242;2022-08-06T03:55:32;15.59;84.46
69335;SHT31;56477;52.742;15.242;2022-08-06T03:58:07;15.62;84.15
69335;SHT31;56477;52.742;15.242;2022-08-06T04:00:37;15.69;83.78
69335;SHT31;56477;52.742;15.242;2022-08-06T04:03:04;15.79;83.37
69335;SHT31;56477;52.742;15.242;2022-08-06T04:05:31;15.70;83.23
69335;SHT31;56477;52.742;15.242;2022-08-06T04:08:00;15.62;83.89
69335;SHT31;56477;52.742;15.242;2022-08-06T04:10:45;15.69;84.06
69335;SHT31;56477;52.742;15.242;2022-08-06T04:13:13;15.67;83.92
69335;SHT31;56477;52.742;15.242;2022-08-06T04:15:41;15.63;83.23
69335;SHT31;56477;52.742;15.242;2022-08-06T04:18:10;15.54;83.46
69335;SHT31;56477;52.742;15.242;2022-08-06T04:20:40;15.58;83.65
69335;SHT31;56477;52.742;15.242;2022-08-06T04:23:07;15.61;83.84
69335;SHT31;56477;52.742;15.242;2022-08-06T04:25:38;15.59;83.89
69335;SHT31;56477;52.742;15.242;2022-08-06T04:28:05;15.61;84.05
69335;SHT31;56477;52.742;15.242;2022-08-06T04:30:33;15.65;83.61
69335;SHT31;56477;52.742;15.242;2022-08-06T04:33:02;15.56;83.49
69335;SHT31;56477;52.742;15.242;2022-08-06T04:35:29;15.52;83.88
69335;SHT31;56477;52.742;15.242;2022-08-06T04:37:56;15.49;83.55
69335;SHT31;56477;52.742;15.242;2022-08-06T04:40:23;15.55;83.27
69335;SHT31;56477;52.742;15.242;2022-08-06T04:42:50;15.48;83.03
69335;SHT31;56477;52.742;15.242;2022-08-06T04:45:17;15.45;83.10
69335;SHT31;56477;52.742;15.242;2022-08-06T04:47:43;15.35;83.55
69335;SHT31;56477;52.742;15.242;2022-08-06T04:50:10;15.39;83.43
69335;SHT31;56477;52.742;15.242;2022-08-06T04:52:36;15.41;83.63
69335;SHT31;56477;52.742;15.242;2022-08-06T04:55:03;15.31;83.60
69335;SHT31;56477;52.742;15.242;2022-08-06T04:57:28;15.34;83.24
69335;SHT31;56477;52.742;15.242;2022-08-06T04:59:54;15.36;83.05
69335;SHT31;56477;52.742;15.242;2022-08-06T05:02:20;15.38;82.75
69335;SHT31;56477;52.742;15.242;2022-08-06T05:04:47;15.34;82.98
69335;SHT31;56477;52.742;15.242;2022-08-06T05:07:23;15.31;82.51
69335;SHT31;56477;52.742;15.242;2022-08-06T05:09:50;15.25;82.66
69335;SHT31;56477;52.742;15.242;2022-08-06T05:15:10;15.18;82.98
69335;SHT31;56477;52.742;15.242;2022-08-06T05:18:02;15.21;82.65
69335;SHT31;56477;52.742;15.242;2022-08-06T05:20:36;15.24;82.68
69335;SHT31;56477;52.742;15.242;2022-08-06T05:23:14;15.20;82.87
69335;SHT31;56477;52.742;15.242;2022-08-06T05:25:42;15.31;82.91
69335;SHT31;56477;52.742;15.242;2022-08-06T05:28:08;15.25;82.57
69335;SHT31;56477;52.742;15.242;2022-08-06T05:30:44;15.27;82.41
69335;SHT31;56477;52.742;15.242;2022-08-06T05:33:11;15.27;82.51
69335;SHT31;56477;52.742;15.242;2022-08-06T05:35:38;15.32;82.49
69335;SHT31;56477;52.742;15.242;2022-08-06T05:38:03;15.31;81.99
69335;SHT31;56477;52.742;15.242;2022-08-06T05:40:30;15.21;82.28
69335;SHT31;56477;52.742;15.242;2022-08-06T05:43:00;15.32;82.01
69335;SHT31;56477;52.742;15.242;2022-08-06T05:45:26;15.30;81.62
69335;SHT31;56477;52.742;15.242;2022-08-06T05:47:52;15.36;81.47
69335;SHT31;56477;52.742;15.242;2022-08-06T05:50:22;15.32;80.72
69335;SHT31;56477;52.742;15.242;2022-08-06T05:52:55;15.35;81.27
69335;SHT31;56477;52.742;15.242;2022-08-06T05:55:27;15.44;80.44
69335;SHT31;56477;52.742;15.242;2022-08-06T05:58:04;15.73;80.18
69335;SHT31;56477;52.742;15.242;2022-08-06T06:00:33;15.73;78.61
69335;SHT31;56477;52.742;15.242;2022-08-06T06:03:03;15.92;78.29
69335;SHT31;56477;52.742;15.242;2022-08-06T06:05:30;16.09;77.86
69335;SHT31;56477;52.742;15.242;2022-08-06T06:07:56;16.20;77.89
69335;SHT31;56477;52.742;15.242;2022-08-06T06:10:23;16.10;77.43
69335;SHT31;56477;52.742;15.242;2022-08-06T06:12:49;16.28;77.42
69335;SHT31;56477;52.742;15.242;2022-08-06T06:15:16;16.35;76.23
69335;SHT31;56477;52.742;15.242;2022-08-06T06:23:04;16.65;74.08
69335;SHT31;56477;52.742;15.242;2022-08-06T06:25:44;16.68;73.68
69335;SHT31;56477;52.742;15.242;2022-08-06T06:28:18;16.99;73.68
69335;SHT31;56477;52.742;15.242;2022-08-06T06:31:03;16.78;73.50
69335;SHT31;56477;52.742;15.242;2022-08-06T06:33:42;16.98;73.48
69335;SHT31;56477;52.742;15.242;2022-08-06T06:39:07;17.10;72.56
69335;SHT31;56477;52.742;15.242;2022-08-06T06:41:43;17.02;72.55
69335;SHT31;56477;52.742;15.242;2022-08-06T06:44:19;16.78;72.81
69335;SHT31;56477;52.742;15.242;2022-08-06T06:47:05;16.93;72.15
69335;SHT31;56477;52.742;15.242;2022-08-06T06:49:40;16.55;71.87
69335;SHT31;56477;52.742;15.242;2022-08-06T06:52:39;16.52;73.13
69335;SHT31;56477;52.742;15.242;2022-08-06T06:55:10;16.72;73.12
69335;SHT31;56477;52.742;15.242;2022-08-06T06:57:42;16.81;73.19
69335;SHT31;56477;52.742;15.242;2022-08-06T07:00:09;16.54;73.78
69335;SHT31;56477;52.742;15.242;2022-08-06T07:02:38;16.64;73.72
69335;SHT31;56477;52.742;15.242;2022-08-06T07:05:07;16.79;73.46
69335;SHT31;56477;52.742;15.242;2022-08-06T07:07:38;17.03;72.57
69335;SHT31;56477;52.742;15.242;2022-08-06T07:10:08;17.06;71.49
69335;SHT31;56477;52.742;15.242;2022-08-06T07:12:34;17.39;70.89
69335;SHT31;56477;52.742;15.242;2022-08-06T07:15:04;17.98;68.58
69335;SHT31;56477;52.742;15.242;2022-08-06T07:17:32;18.67;67.26
69335;SHT31;56477;52.742;15.242;2022-08-06T07:20:02;18.46;66.40
69335;SHT31;56477;52.742;15.242;2022-08-06T07:22:31;18.26;66.75
69335;SHT31;56477;52.742;15.242;2022-08-06T07:25:00;18.19;67.23
69335;SHT31;56477;52.742;15.242;2022-08-06T07:27:35;18.10;66.62
69335;SHT31;56477;52.742;15.242;2022-08-06T07:30:03;18.39;65.78
69335;SHT31;56477;52.742;15.242;2022-08-06T07:32:33;18.09;65.85
69335;SHT31;56477;52.742;15.242;2022-08-06T07:35:08;18.30;65.77
69335;SHT31;56477;52.742;15.242;2022-08-06T07:37:37;18.19;66.73
69335;SHT31;56477;52.742;15.242;2022-08-06T07:40:15;17.60;67.35
69335;SHT31;56477;52.742;15.242;2022-08-06T07:42:44;17.40;67.51
69335;SHT31;56477;52.742;15.242;2022-08-06T07:45:12;18.18;65.93
69335;SHT31;56477;52.742;15.242;2022-08-06T07:47:40;18.94;63.74
69335;SHT31;56477;52.742;15.242;2022-08-06T07:50:11;19.86;60.65
69335;SHT31;56477;52.742;15.242;2022-08-06T07:52:39;20.01;59.78
69335;SHT31;56477;52.742;15.242;2022-08-06T07:55:07;20.04;59.54
69335;SHT31;56477;52.742;15.242;2022-08-06T07:57:36;20.73;58.68
69335;SHT31;56477;52.742;15.242;2022-08-06T08:00:04;20.93;57.03
69335;SHT31;56477;52.742;15.242;2022-08-06T08:02:30;21.19;55.63
69335;SHT31;56477;52.742;15.242;2022-08-06T08:04:57;22.67;51.71
69335;SHT31;56477;52.742;15.242;2022-08-06T08:07:42;22.56;51.59
69335;SHT31;56477;52.742;15.242;2022-08-06T08:10:09;22.57;50.25
69335;SHT31;56477;52.742;15.242;2022-08-06T08:12:36;21.67;52.72
69335;SHT31;56477;52.742;15.242;2022-08-06T08:15:04;22.15;51.85
69335;SHT31;56477;52.742;15.242;2022-08-06T08:17:31;21.69;51.86
69335;SHT31;56477;52.742;15.242;2022-08-06T08:20:02;21.22;53.55
69335;SHT31;56477;52.742;15.242;2022-08-06T08:22:29;21.41;53.61
69335;SHT31;56477;52.742;15.242;2022-08-06T08:24:55;22.42;50.24
69335;SHT31;56477;52.742;15.242;2022-08-06T08:27:21;22.90;48.16
69335;SHT31;56477;52.742;15.242;2022-08-06T08:29:47;22.28;47.53
69335;SHT31;56477;52.742;15.242;2022-08-06T08:32:13;22.15;48.06
69335;SHT31;56477;52.742;15.242;2022-08-06T08:34:39;23.56;45.01
69335;SHT31;56477;52.742;15.242;2022-08-06T08:37:05;24.64;43.53
69335;SHT31;56477;52.742;15.242;2022-08-06T08:39:31;25.00;42.39
69335;SHT31;56477;52.742;15.242;2022-08-06T08:42:19;25.26;41.16
69335;SHT31;56477;52.742;15.242;2022-08-06T08:44:49;25.82;40.28
69335;SHT31;56477;52.742;15.242;2022-08-06T08:47:15;26.49;38.54
69335;SHT31;56477;52.742;15.242;2022-08-06T08:49:55;25.80;39.20
69335;SHT31;56477;52.742;15.242;2022-08-06T08:52:26;26.49;38.11
69335;SHT31;56477;52.742;15.242;2022-08-06T08:54:58;26.65;37.68
69335;SHT31;56477;52.742;15.242;2022-08-06T08:57:26;25.60;38.19
69335;SHT31;56477;52.742;15.242;2022-08-06T08:59:54;24.51;40.51
69335;SHT31;56477;52.742;15.242;2022-08-06T09:02:20;24.37;40.64
69335;SHT31;56477;52.742;15.242;2022-08-06T09:04:46;25.63;39.05
69335;SHT31;56477;52.742;15.242;2022-08-06T09:07:12;25.64;38.87
69335;SHT31;56477;52.742;15.242;2022-08-06T09:09:38;24.62;40.31
69335;SHT31;56477;52.742;15.242;2022-08-06T09:12:05;24.30;40.71
69335;SHT31;56477;52.742;15.242;2022-08-06T09:14:35;23.32;40.96
69335;SHT31;56477;52.742;15.242;2022-08-06T09:17:02;23.60;41.58
69335;SHT31;56477;52.742;15.242;2022-08-06T09:19:29;23.90;41.43
69335;SHT31;56477;52.742;15.242;2022-08-06T09:21:59;25.22;39.33
69335;SHT31;56477;52.742;15.242;2022-08-06T09:24:25;25.23;39.66
69335;SHT31;56477;52.742;15.242;2022-08-06T09:27:06;25.88;38.13
69335;SHT31;56477;52.742;15.242;2022-08-06T09:29:33;26.16;38.46
69335;SHT31;56477;52.742;15.242;2022-08-06T09:32:01;26.50;37.24
69335;SHT31;56477;52.742;15.242;2022-08-06T09:34:35;26.18;37.95
69335;SHT31;56477;52.742;15.242;2022-08-06T09:37:02;24.83;39.30
69335;SHT31;56477;52.742;15.242;2022-08-06T09:39:39;24.16;40.13
69335;SHT31;56477;52.742;15.242;2022-08-06T09:42:07;23.16;41.21
69335;SHT31;56477;52.742;15.242;2022-08-06T09:44:33;24.37;40.10
69335;SHT31;56477;52.742;15.242;2022-08-06T09:46:59;24.61;40.00
69335;SHT31;56477;52.742;15.242;2022-08-06T09:49:26;23.92;40.16
69335;SHT31;56477;52.742;15.242;2022-08-06T09:52:17;24.09;40.42
69335;SHT31;56477;52.742;15.242;2022-08-06T09:54:44;23.19;40.94
69335;SHT31;56477;52.742;15.242;2022-08-06T09:57:12;24.34;39.90
69335;SHT31;56477;52.742;15.242;2022-08-06T09:59:45;24.25;40.37
69335;SHT31;56477;52.742;15.242;2022-08-06T10:02:13;25.31;37.86
69335;SHT31;56477;52.742;15.242;2022-08-06T10:04:40;24.49;39.42
69335;SHT31;56477;52.742;15.242;2022-08-06T10:07:06;23.94;40.11
69335;SHT31;56477;52.742;15.242;2022-08-06T10:09:33;24.22;39.57
69335;SHT31;56477;52.742;15.242;2022-08-06T10:12:00;24.07;40.72
69335;SHT31;56477;52.742;15.242;2022-08-06T10:14:33;24.44;38.95
69335;SHT31;56477;52.742;15.242;2022-08-06T10:17:19;25.07;37.08
69335;SHT31;56477;52.742;15.242;2022-08-06T10:20:09;26.05;35.62
69335;SHT31;56477;52.742;15.242;2022-08-06T10:22:49;25.34;37.07
69335;SHT31;56477;52.742;15.242;2022-08-06T10:25:15;23.97;39.43
69335;SHT31;56477;52.742;15.242;2022-08-06T10:27:43;24.67;38.35
69335;SHT31;56477;52.742;15.242;2022-08-06T10:30:09;24.11;39.48
69335;SHT31;56477;52.742;15.242;2022-08-06T10:35:20;22.91;41.51
69335;SHT31;56477;52.742;15.242;2022-08-06T10:37:51;23.35;41.02
69335;SHT31;56477;52.742;15.242;2022-08-06T10:40:20;23.79;41.02
69335;SHT31;56477;52.742;15.242;2022-08-06T10:42:47;25.28;38.45
69335;SHT31;56477;52.742;15.242;2022-08-06T10:45:13;26.31;35.95
69335;SHT31;56477;52.742;15.242;2022-08-06T10:47:41;27.22;33.32
69335;SHT31;56477;52.742;15.242;2022-08-06T10:50:08;25.27;36.22
69335;SHT31;56477;52.742;15.242;2022-08-06T10:52:35;24.48;37.80
69335;SHT31;56477;52.742;15.242;2022-08-06T10:55:04;25.75;37.05
69335;SHT31;56477;52.742;15.242;2022-08-06T10:57:30;25.80;36.40
69335;SHT31;56477;52.742;15.242;2022-08-06T11:00:00;24.93;36.39
69335;SHT31;56477;52.742;15.242;2022-08-06T11:05:23;24.57;37.08
69335;SHT31;56477;52.742;15.242;2022-08-06T11:13:40;27.41;32.77
69335;SHT31;56477;52.742;15.242;2022-08-06T11:16:26;28.49;30.45
69335;SHT31;56477;52.742;15.242;2022-08-06T11:21:43;27.29;31.43
69335;SHT31;56477;52.742;15.242;2022-08-06T11:24:11;24.59;36.16
69335;SHT31;56477;52.742;15.242;2022-08-06T11:26:40;23.55;36.50
69335;SHT31;56477;52.742;15.242;2022-08-06T11:29:07;23.15;38.33
69335;SHT31;56477;52.742;15.242;2022-08-06T11:31:39;25.40;35.60
69335;SHT31;56477;52.742;15.242;2022-08-06T11:34:08;26.87;33.07
69335;SHT31;56477;52.742;15.242;2022-08-06T11:36:50;27.98;31.89
69335;SHT31;56477;52.742;15.242;2022-08-06T11:39:18;25.78;33.45
69335;SHT31;56477;52.742;15.242;2022-08-06T11:41:53;26.23;33.58
69335;SHT31;56477;52.742;15.242;2022-08-06T11:44:22;26.61;31.99
69335;SHT31;56477;52.742;15.242;2022-08-06T11:46:49;27.34;31.06
69335;SHT31;56477;52.742;15.242;2022-08-06T11:52:07;28.68;29.60
69335;SHT31;56477;52.742;15.242;2022-08-06T11:54:59;25.92;32.83
69335;SHT31;56477;52.742;15.242;2022-08-06T11:57:25;25.53;34.17
69335;SHT31;56477;52.742;15.242;2022-08-06T12:02:44;25.61;35.19
69335;SHT31;56477;52.742;15.242;2022-08-06T12:07:42;26.91;33.12
69335;SHT31;56477;52.742;15.242;2022-08-06T12:10:12;24.88;33.74
69335;SHT31;56477;52.742;15.242;2022-08-06T12:12:49;25.57;34.23
69335;SHT31;56477;52.742;15.242;2022-08-06T12:18:04;25.98;32.13
69335;SHT31;56477;52.742;15.242;2022-08-06T12:20:40;27.41;30.95
69335;SHT31;56477;52.742;15.242;2022-08-06T12:23:12;27.69;30.86
69335;SHT31;56477;52.742;15.242;2022-08-06T12:25:41;27.76;30.28
69335;SHT31;56477;52.742;15.242;2022-08-06T12:28:08;28.27;30.15
69335;SHT31;56477;52.742;15.242;2022-08-06T12:30:45;28.89;29.49
69335;SHT31;56477;52.742;15.242;2022-08-06T12:33:11;27.52;32.02
69335;SHT31;56477;52.742;15.242;2022-08-06T12:36:08;28.88;29.28
69335;SHT31;56477;52.742;15.242;2022-08-06T12:38:34;26.97;30.43
69335;SHT31;56477;52.742;15.242;2022-08-06T12:41:07;28.44;29.73
69335;SHT31;56477;52.742;15.242;2022-08-06T12:43:35;27.87;30.35
69335;SHT31;56477;52.742;15.242;2022-08-06T12:46:04;28.83;29.37
69335;SHT31;56477;52.742;15.242;2022-08-06T12:48:32;27.28;30.85
69335;SHT31;56477;52.742;15.242;2022-08-06T12:51:04;26.05;32.75
69335;SHT31;56477;52.742;15.242;2022-08-06T12:53:31;26.88;33.09
69335;SHT31;56477;52.742;15.242;2022-08-06T12:55:58;27.39;30.78
69335;SHT31;56477;52.742;15.242;2022-08-06T12:58:31;26.77;32.34
69335;SHT31;56477;52.742;15.242;2022-08-06T13:00:59;28.13;30.38
69335;SHT31;56477;52.742;15.242;2022-08-06T13:03:26;28.72;30.43
69335;SHT31;56477;52.742;15.242;2022-08-06T13:05:54;29.60;27.76
69335;SHT31;56477;52.742;15.242;2022-08-06T13:08:20;26.98;31.07
69335;SHT31;56477;52.742;15.242;2022-08-06T13:10:48;27.05;31.66
69335;SHT31;56477;52.742;15.242;2022-08-06T13:13:16;26.09;32.20
69335;SHT31;56477;52.742;15.242;2022-08-06T13:15:43;27.11;31.54
69335;SHT31;56477;52.742;15.242;2022-08-06T13:18:24;26.92;32.23
69335;SHT31;56477;52.742;15.242;2022-08-06T13:20:50;26.53;31.55
69335;SHT31;56477;52.742;15.242;2022-08-06T13:23:37;26.87;31.67
69335;SHT31;56477;52.742;15.242;2022-08-06T13:26:24;26.76;30.29
69335;SHT31;56477;52.742;15.242;2022-08-06T13:29:23;27.93;30.11
69335;SHT31;56477;52.742;15.242;2022-08-06T13:32:03;26.46;31.64
69335;SHT31;56477;52.742;15.242;2022-08-06T13:34:44;27.29;30.42
69335;SHT31;56477;52.742;15.242;2022-08-06T13:37:10;28.71;29.30
69335;SHT31;56477;52.742;15.242;2022-08-06T13:39:49;28.55;28.06
69335;SHT31;56477;52.742;15.242;2022-08-06T13:42:15;28.40;29.56
69335;SHT31;56477;52.742;15.242;2022-08-06T13:44:43;28.20;28.66
69335;SHT31;56477;52.742;15.242;2022-08-06T13:47:11;27.08;29.65
69335;SHT31;56477;52.742;15.242;2022-08-06T13:49:46;26.18;30.66
69335;SHT31;56477;52.742;15.242;2022-08-06T13:52:13;26.84;30.98
69335;SHT31;56477;52.742;15.242;2022-08-06T13:54:38;26.32;31.18
69335;SHT31;56477;52.742;15.242;2022-08-06T13:57:04;24.89;33.16
69335;SHT31;56477;52.742;15.242;2022-08-06T13:59:31;24.78;33.27
69335;SHT31;56477;52.742;15.242;2022-08-06T14:01:58;26.95;32.34
69335;SHT31;56477;52.742;15.242;2022-08-06T14:04:25;27.45;30.40
69335;SHT31;56477;52.742;15.242;2022-08-06T14:06:52;28.51;29.50
69335;SHT31;56477;52.742;15.242;2022-08-06T14:09:20;28.20;29.74
69335;SHT31;56477;52.742;15.242;2022-08-06T14:11:59;29.16;28.16
69335;SHT31;56477;52.742;15.242;2022-08-06T14:14:27;29.61;28.01
69335;SHT31;56477;52.742;15.242;2022-08-06T14:16:58;29.24;28.43
69335;SHT31;56477;52.742;15.242;2022-08-06T14:19:25;28.78;27.65
69335;SHT31;56477;52.742;15.242;2022-08-06T14:21:51;27.31;29.98
69335;SHT31;56477;52.742;15.242;2022-08-06T14:24:18;26.60;30.33
69335;SHT31;56477;52.742;15.242;2022-08-06T14:26:44;27.24;29.27
69335;SHT31;56477;52.742;15.242;2022-08-06T14:29:10;28.14;28.36
69335;SHT31;56477;52.742;15.242;2022-08-06T14:31:36;27.93;27.82
69335;SHT31;56477;52.742;15.242;2022-08-06T14:34:02;27.10;29.52
69335;SHT31;56477;52.742;15.242;2022-08-06T14:36:29;26.52;30.27
69335;SHT31;56477;52.742;15.242;2022-08-06T14:38:55;27.46;30.28
69335;SHT31;56477;52.742;15.242;2022-08-06T14:41:21;26.92;30.49
69335;SHT31;56477;52.742;15.242;2022-08-06T14:44:06;27.69;30.05
69335;SHT31;56477;52.742;15.242;2022-08-06T14:47:04;28.51;28.43
69335;SHT31;56477;52.742;15.242;2022-08-06T14:49:32;28.56;28.49
69335;SHT31;56477;52.742;15.242;2022-08-06T14:51:58;25.98;30.60
69335;SHT31;56477;52.742;15.242;2022-08-06T14:54:24;26.21;30.86
69335;SHT31;56477;52.742;15.242;2022-08-06T14:56:50;25.89;31.56
69335;SHT31;56477;52.742;15.242;2022-08-06T14:59:16;25.92;32.16
69335;SHT31;56477;52.742;15.242;2022-08-06T15:01:42;25.54;32.49
69335;SHT31;56477;52.742;15.242;2022-08-06T15:04:09;26.31;32.96
69335;SHT31;56477;52.742;15.242;2022-08-06T15:06:35;26.56;32.36
69335;SHT31;56477;52.742;15.242;2022-08-06T15:09:00;26.94;32.72
69335;SHT31;56477;52.742;15.242;2022-08-06T15:11:26;26.81;32.05
69335;SHT31;56477;52.742;15.242;2022-08-06T15:13:52;26.64;32.41
69335;SHT31;56477;52.742;15.242;2022-08-06T15:16:18;26.69;32.50
69335;SHT31;56477;52.742;15.242;2022-08-06T15:18:44;26.31;32.31
69335;SHT31;56477;52.742;15.242;2022-08-06T15:21:10;26.31;32.62
69335;SHT31;56477;52.742;15.242;2022-08-06T15:23:36;26.03;33.41
69335;SHT31;56477;52.742;15.242;2022-08-06T15:26:02;26.39;32.94
69335;SHT31;56477;52.742;15.242;2022-08-06T15:28:28;26.50;33.19
69335;SHT31;56477;52.742;15.242;2022-08-06T15:30:54;26.56;33.22
69335;SHT31;56477;52.742;15.242;2022-08-06T15:33:21;25.73;32.87
69335;SHT31;56477;52.742;15.242;2022-08-06T15:35:50;25.95;33.57
69335;SHT31;56477;52.742;15.242;2022-08-06T15:38:16;26.05;33.75
69335;SHT31;56477;52.742;15.242;2022-08-06T15:40:42;25.78;34.10
69335;SHT31;56477;52.742;15.242;2022-08-06T15:43:08;24.65;35.64
69335;SHT31;56477;52.742;15.242;2022-08-06T15:45:34;24.48;35.54
69335;SHT31;56477;52.742;15.242;2022-08-06T15:48:01;24.55;35.66
69335;SHT31;56477;52.742;15.242;2022-08-06T15:50:26;24.92;34.89
69335;SHT31;56477;52.742;15.242;2022-08-06T15:52:52;24.75;35.19
69335;SHT31;56477;52.742;15.242;2022-08-06T15:55:20;25.07;35.66
69335;SHT31;56477;52.742;15.242;2022-08-06T15:57:47;25.12;35.22
69335;SHT31;56477;52.742;15.242;2022-08-06T16:00:13;25.36;34.57
69335;SHT31;56477;52.742;15.242;2022-08-06T16:02:41;25.63;34.24
69335;SHT31;56477;52.742;15.242;2022-08-06T16:05:07;25.80;34.00
69335;SHT31;56477;52.742;15.242;2022-08-06T16:07:33;25.81;34.46
69335;SHT31;56477;52.742;15.242;2022-08-06T16:09:59;25.80;33.48
69335;SHT31;56477;52.742;15.242;2022-08-06T16:12:25;24.97;33.89
69335;SHT31;56477;52.742;15.242;2022-08-06T16:14:51;25.20;35.62
69335;SHT31;56477;52.742;15.242;2022-08-06T16:17:17;25.26;36.02